METAR Data
IDs: Format: Raw Decoded Include TAF

Data at: 2251 UTC 26 Feb 2020

KFOD 262156Z AUTO 31009G15KT 10SM BKN036 M01/M07 A3025 RMK AO2 SLP289 T10111067 FZRANO
KFOD 262056Z AUTO 30010G17KT 10SM BKN038 00/M07 A3026 RMK AO2 SLP292 T00001072 56018 FZRANO
KFOD 261856Z AUTO 33011G14KT 10SM CLR M01/M08 A3029 RMK AO2 SLP303 T10061078 FZRANO
KFOD 261756Z AUTO 36009KT 10SM CLR M02/M08 A3032 RMK AO2 SLP310 T10221078 11017 21078 58008 FZRANO
KFOD 261656Z AUTO 35009KT 10SM CLR M03/M07 A3034 RMK AO2 SLP319 T10331072 FZRANO
KFOD 261556Z AUTO 34007KT 10SM CLR M06/M08 A3035 RMK AO2 SLP323 T10561083 FZRANO
KFOD 261456Z AUTO 34012G15KT 10SM FEW014 M07/M09 A3034 RMK AO2 SLP321 T10671094 53011 FZRANO
KFOD 261356Z AUTO 34007G17KT 10SM CLR M08/M10 A3033 RMK AO2 SLP319 T10781100 FZRANO
KFOD 261336Z AUTO 35008KT 10SM FEW012 SCT050 M08/M10 A3032 RMK AO2 FZRANO
KFOD 261256Z AUTO 35009KT 10SM BKN012 M08/M09 A3031 RMK AO2 SLP312 T10781094 FZRANO
KFOD 261215Z AUTO 34010G16KT 10SM BKN012 M07/M09 A3031 RMK AO2 FZRANO
KFOD 261156Z AUTO 35012G17KT 10SM FEW012 M07/M09 A3031 RMK AO2 SNB12E22 SLP308 P0000 60000 T10721094 11028 21072 53004 FZRANO
KFOD 261056Z AUTO 34009G17KT 10SM OVC055 M06/M08 A3030 RMK AO2 SNB02E34 SLP307 P0000 T10611083 FZRANO
KFOD 260956Z AUTO 35011KT 10SM SCT013 BKN045 OVC055 M06/M08 A3029 RMK AO2 SLP303 T10561078 FZRANO
KFOD 260954Z AUTO 34011KT 10SM SCT013 BKN047 OVC055 M06/M08 A3030 RMK AO2 FZRANO
KFOD 260923Z AUTO 34009G17KT 10SM BKN013 OVC060 M05/M07 A3030 RMK AO2 FZRANO
KFOD 260756Z AUTO 34009KT 10SM SCT011 OVC055 M04/M06 A3030 RMK AO2 SLP305 T10441061 FZRANO
KFOD 260740Z AUTO 34010G17KT 10SM SCT011 OVC050 M04/M06 A3030 RMK AO2 FZRANO
KFOD 260656Z AUTO 35007KT 10SM BKN011 OVC055 M03/M05 A3030 RMK AO2 SLP305 T10331050 FZRANO
KFOD 260638Z AUTO 34012KT 10SM BKN011 OVC049 M03/M05 A3030 RMK AO2 FZRANO
KFOD 260626Z AUTO 34010KT 320V020 10SM SCT011 OVC049 M03/M05 A3030 RMK AO2 FZRANO
KFOD 260617Z AUTO 35009KT 10SM BKN011 OVC049 M03/M04 A3030 RMK AO2 FZRANO
KFOD 260556Z AUTO 35008KT 10SM SCT011 OVC049 M03/M04 A3030 RMK AO2 SLP304 T10281044 10006 21028 50003 FZRANO
KFOD 260456Z AUTO 36011G19KT 10SM SCT011 OVC047 M02/M04 A3030 RMK AO2 SLP305 T10221039 400171022 FZRANO
KFOD 260356Z AUTO 36009KT 10SM SCT011 M02/M03 A3030 RMK AO2 SLP303 T10221033 FZRANO
KFOD 260342Z AUTO 35009KT 10SM SCT011 M02/M03 A3030 RMK AO2 FZRANO
KFOD 260256Z AUTO 35008KT 10SM OVC011 M02/M03 A3029 RMK AO2 SLP301 T10171033 51015 FZRANO
KFOD 260228Z AUTO 36011G14KT 10SM BKN013 M01/M03 A3029 RMK AO2 FZRANO
KFOD 260156Z AUTO 36011G18KT 10SM SCT013 SCT020 M01/M03 A3029 RMK AO2 SLP299 T10111028 FZRANO
KFOD 260123Z AUTO 36012G16KT 10SM BKN013 BKN020 M01/M02 A3028 RMK AO2 FZRANO
KFOD 260056Z AUTO 36009KT 10SM CLR 00/M03 A3028 RMK AO2 SLP295 T00001033 FZRANO
KFOD 252356Z AUTO 01009G20KT 10SM CLR 01/M04 A3025 RMK AO2 SLP284 T00061044 10017 20006 53020 FZRANO
KFOD 252256Z AUTO 01013G17KT 10SM CLR 01/M05 A3022 RMK AO2 SLP275 T00061050 FZRANO
KFOD 252156Z AUTO 01016G21KT 10SM CLR 01/M05 A3020 RMK AO2 SLP269 T00111050 FZRANO
KFOD 252056Z AUTO 01014G19KT 10SM CLR 01/M04 A3019 RMK AO2 SLP263 T00111044 53003 FZRANO
KFOD 251956Z AUTO 01013G20KT 10SM CLR 02/M05 A3017 RMK AO2 SLP257 T00171050 FZRANO
KFOD 251856Z AUTO 03015G20KT 10SM CLR 02/M04 A3017 RMK AO2 SLP257 T00171039 FZRANO
KFOD 251756Z AUTO 03013KT 10SM CLR 02/M03 A3018 RMK AO2 SLP259 T00171028 10017 21011 51015 FZRANO
KFOD 251656Z AUTO 04013G18KT 10SM BKN038 01/M03 A3016 RMK AO2 SLP256 T00061033 FZRANO
KFOD 251556Z AUTO 04012G18KT 10SM CLR 00/M04 A3015 RMK AO2 SLP251 T00001039 FZRANO
KFOD 251456Z AUTO 03012KT 10SM CLR M01/M04 A3013 RMK AO2 SLP244 T10061039 53029 FZRANO
KFOD 251356Z AUTO 03010KT 10SM CLR M01/M04 A3010 RMK AO2 SLP234 T10111039 FZRANO
KFOD 251256Z AUTO 02008KT 10SM CLR M01/M04 A3007 RMK AO2 SLP224 T10111039 FZRANO
KFOD 251156Z AUTO 03009KT 10SM OVC110 M01/M04 A3004 RMK AO2 SLP214 T10061039 10000 21006 53018 FZRANO
KFOD 251056Z AUTO 03008KT 10SM CLR M01/M03 A3002 RMK AO2 SLP205 T10061033 FZRANO